Terminal Aerodrome Forecast
Issued by NWS

Home | Current Version | Previous Version | Text Only | Print | Product List | Glossary On
Versions: 1 2 3 4 5 6 7 8 9 10 11 12 13 14 15 16 17 18 19 20 21 22 23 24
000
FTUS42 KMFL 230534
TAFMIA
TAF
KMIA 230534Z 2306/2412 10009KT P6SM FEW015 SCT020 BKN150
     FM231400 16010KT P6SM VCSH SCT025 BKN050
     FM240000 19005KT P6SM VCSH SCT025 BKN050
     FM240200 VRB03KT P6SM BKN050
     FM240600 32003KT P6SM OVC025=

USA.gov is the U.S. government's official web portal to all federal, state and local government web resources and services.